createdAt,value
2023-02-23T00:01:24.409Z,99978.37
2023-02-23T00:03:51.902Z,99980.32
2023-02-23T00:06:19.483Z,99988.13
2023-02-23T00:08:48.018Z,99993.23
2023-02-23T00:11:16.000Z,99991.77
2023-02-23T00:13:46.330Z,99989.34
2023-02-23T00:16:16.770Z,99996.17
2023-02-23T00:18:48.405Z,99999.83
2023-02-23T00:21:16.426Z,100004.13
2023-02-23T00:23:47.907Z,100007.17
2023-02-23T00:26:14.890Z,100005.45
2023-02-23T00:28:43.714Z,100013.48
2023-02-23T00:31:11.840Z,100017.25
2023-02-23T00:33:41.150Z,100025.20
2023-02-23T00:36:13.641Z,100030.62
2023-02-23T00:38:41.736Z,100033.71
2023-02-23T00:41:12.463Z,100032.77
2023-02-23T00:43:48.030Z,100040.02
2023-02-23T00:46:19.091Z,100041.19
2023-02-23T00:48:51.307Z,100039.89
2023-02-23T00:51:19.504Z,100045.34
2023-02-23T00:53:46.583Z,100039.44
2023-02-23T00:56:14.378Z,100041.05
2023-02-23T00:58:41.525Z,100037.73
2023-02-23T01:01:09.865Z,100035.24
2023-02-23T01:03:37.128Z,100035.03
2023-02-23T01:06:07.093Z,100034.73
2023-02-23T01:08:34.761Z,100035.61
2023-02-23T01:11:13.470Z,100039.77
2023-02-23T01:13:42.033Z,100041.61
2023-02-23T01:16:11.261Z,100046.74
2023-02-23T01:18:39.269Z,100045.98
2023-02-23T01:21:06.613Z,100048.63
2023-02-23T01:23:33.519Z,100051.20
2023-02-23T01:26:00.569Z,100059.51
2023-02-23T01:28:28.018Z,100063.44
2023-02-23T01:30:55.074Z,100060.29
2023-02-23T01:33:22.062Z,100062.57
2023-02-23T01:35:59.565Z,100063.08
2023-02-23T01:38:26.679Z,100072.81
2023-02-23T01:40:53.546Z,100068.30
2023-02-23T01:43:27.653Z,100076.10
2023-02-23T01:45:55.684Z,100082.85
2023-02-23T01:48:27.403Z,100085.11
2023-02-23T01:51:03.752Z,100080.91
2023-02-23T01:53:34.256Z,100085.67
2023-02-23T01:56:24.501Z,100092.86
2023-02-23T01:58:53.217Z,100091.70
2023-02-23T02:01:21.905Z,100090.58
2023-02-23T02:03:51.688Z,100093.16
2023-02-23T02:06:18.735Z,100091.98
2023-02-23T02:08:47.557Z,100097.52
2023-02-23T02:11:31.113Z,100101.19
2023-02-23T02:14:03.724Z,100103.04
2023-02-23T02:16:52.990Z,100100.05
2023-02-23T02:20:06.405Z,100104.36
2023-02-23T02:23:13.741Z,100108.09
2023-02-23T02:25:54.744Z,100109.59
2023-02-23T02:28:36.386Z,100115.20
2023-02-23T02:31:15.733Z,100119.38
2023-02-23T02:34:22.596Z,100121.91
2023-02-23T02:37:20.621Z,100132.27
2023-02-23T02:40:40.325Z,100134.82
2023-02-23T02:43:17.722Z,100146.27
2023-02-23T02:45:59.986Z,100144.05
2023-02-23T02:48:42.397Z,100151.25
2023-02-23T02:51:24.772Z,100150.88
2023-02-23T02:54:07.374Z,100156.34
2023-02-23T02:56:40.396Z,100164.15
2023-02-23T02:59:29.956Z,100165.50
2023-02-23T03:02:15.815Z,100166.08
2023-02-23T03:05:01.304Z,100170.84
2023-02-23T03:08:00.586Z,100168.08
2023-02-23T03:10:52.204Z,100173.11
2023-02-23T03:13:45.117Z,100178.67
2023-02-23T03:16:55.434Z,100173.34
2023-02-23T03:19:45.277Z,100176.53
2023-02-23T03:22:40.714Z,100183.29
2023-02-23T03:25:37.505Z,100187.02
2023-02-23T03:28:30.299Z,100179.43
2023-02-23T03:31:20.637Z,100177.73
2023-02-23T03:34:22.383Z,100178.13
2023-02-23T03:37:12.054Z,100174.66
2023-02-23T03:40:01.123Z,100176.54
2023-02-23T03:42:48.933Z,100178.79
2023-02-23T03:45:36.578Z,100175.40
2023-02-23T03:48:22.535Z,100173.95
2023-02-23T03:51:11.929Z,100167.14
2023-02-23T03:54:01.576Z,100168.98
2023-02-23T03:56:47.305Z,100174.89
2023-02-23T03:59:34.256Z,100179.83
2023-02-23T04:02:19.994Z,100178.98
2023-02-23T04:05:05.414Z,100180.20
2023-02-23T04:07:51.010Z,100184.23
2023-02-23T04:10:37.636Z,100188.27
2023-02-23T04:13:15.738Z,100192.09
2023-02-23T04:16:07.209Z,100195.70
2023-02-23T04:18:35.323Z,100198.17
2023-02-23T04:21:03.088Z,100205.42
2023-02-23T04:23:31.108Z,100209.80
2023-02-23T04:25:58.318Z,100207.67
2023-02-23T04:28:27.133Z,100213.77
2023-02-23T04:30:54.136Z,100212.53
2023-02-23T04:33:22.262Z,100219.58
2023-02-23T04:35:49.762Z,100223.04
2023-02-23T04:38:17.067Z,100225.48
2023-02-23T04:40:43.954Z,100230.48
2023-02-23T04:43:14.772Z,100231.75
2023-02-23T04:45:42.366Z,100234.77
2023-02-23T04:48:09.388Z,100240.60
2023-02-23T04:50:36.467Z,100246.98
2023-02-23T04:53:03.608Z,100248.02
2023-02-23T04:55:32.988Z,100248.45
2023-02-23T04:58:01.091Z,100252.89
2023-02-23T05:00:29.573Z,100261.73
2023-02-23T05:02:57.685Z,100258.41
2023-02-23T05:05:25.732Z,100265.99
2023-02-23T05:07:53.867Z,100266.07
2023-02-23T05:10:20.872Z,100265.00
2023-02-23T05:12:47.987Z,100265.77
2023-02-23T05:15:15.084Z,100268.95
2023-02-23T05:17:42.144Z,100277.83
2023-02-23T05:20:10.829Z,100280.18
2023-02-23T05:22:40.524Z,100284.52
2023-02-23T05:25:08.839Z,100286.73
2023-02-23T05:27:36.998Z,100292.63
2023-02-23T05:30:05.660Z,100294.38
2023-02-23T05:32:33.102Z,100302.52
2023-02-23T05:35:00.520Z,100305.81
2023-02-23T05:37:27.419Z,100308.63
2023-02-23T05:39:54.510Z,100304.49
2023-02-23T05:42:21.490Z,100312.54
2023-02-23T05:44:48.634Z,100312.15
2023-02-23T05:47:15.528Z,100311.36
2023-02-23T05:49:42.872Z,100317.21
2023-02-23T05:52:09.849Z,100317.65
2023-02-23T05:54:38.939Z,100314.14
2023-02-23T05:57:05.987Z,100317.61
2023-02-23T05:59:32.915Z,100310.30
2023-02-23T06:02:00.090Z,100313.94
2023-02-23T06:04:27.111Z,100318.52
2023-02-23T06:06:54.368Z,100322.65
2023-02-23T06:09:27.237Z,100326.23
2023-02-23T06:11:55.857Z,100325.64
2023-02-23T06:14:22.908Z,100329.80
2023-02-23T06:16:50.083Z,100329.70
2023-02-23T06:19:17.430Z,100331.52
2023-02-23T06:21:45.118Z,100336.05
2023-02-23T06:24:12.412Z,100337.20
2023-02-23T06:26:39.601Z,100340.27
2023-02-23T06:29:07.595Z,100342.98
2023-02-23T06:31:34.772Z,100341.13
2023-02-23T06:34:03.549Z,100342.08
2023-02-23T06:36:31.412Z,100340.17
2023-02-23T06:38:58.744Z,100338.66
2023-02-23T06:41:25.987Z,100342.60
2023-02-23T06:43:52.982Z,100345.66
2023-02-23T06:46:21.009Z,100343.86
2023-02-23T06:48:48.255Z,100345.41
2023-02-23T06:51:15.167Z,100347.05
2023-02-23T06:53:42.480Z,100357.02
2023-02-23T06:56:10.594Z,100351.35
2023-02-23T06:58:40.496Z,100355.86
2023-02-23T07:01:10.197Z,100361.99
2023-02-23T07:03:37.199Z,100361.85
2023-02-23T07:06:06.288Z,100360.84
2023-02-23T07:08:34.910Z,100362.14
2023-02-23T07:11:09.029Z,100366.62
2023-02-23T07:13:38.009Z,100369.06
2023-02-23T07:16:06.692Z,100372.49
2023-02-23T07:18:34.002Z,100375.66
2023-02-23T07:21:02.605Z,100377.03
2023-02-23T07:23:29.832Z,100379.86
2023-02-23T07:25:58.237Z,100380.27
2023-02-23T07:28:27.859Z,100388.00
2023-02-23T07:30:58.699Z,100384.96
2023-02-23T07:33:26.231Z,100388.59
2023-02-23T07:35:53.553Z,100392.52
2023-02-23T07:38:20.917Z,100390.46
2023-02-23T07:40:50.466Z,100395.43
2023-02-23T07:43:22.900Z,100389.83
2023-02-23T07:45:51.941Z,100388.60
2023-02-23T07:48:19.433Z,100386.94
2023-02-23T07:50:47.504Z,100392.54
2023-02-23T07:53:15.563Z,100394.15
2023-02-23T07:55:42.783Z,100401.16
2023-02-23T07:58:13.834Z,100404.48
2023-02-23T08:00:41.639Z,100411.71
2023-02-23T08:03:08.928Z,100412.87
2023-02-23T08:05:37.757Z,100418.09
2023-02-23T08:08:05.241Z,100418.98
2023-02-23T08:10:38.526Z,100417.89
2023-02-23T08:13:06.987Z,100418.89
2023-02-23T08:15:39.637Z,100422.48
2023-02-23T08:18:09.988Z,100417.02
2023-02-23T08:20:39.127Z,100419.44
2023-02-23T08:23:06.898Z,100424.23
2023-02-23T08:25:35.068Z,100420.79
2023-02-23T08:28:07.281Z,100418.08
2023-02-23T08:30:35.934Z,100433.20
2023-02-23T08:33:03.204Z,100434.15
2023-02-23T08:35:31.672Z,100439.96
2023-02-23T08:37:59.069Z,100437.93
2023-02-23T08:40:26.724Z,100442.48
2023-02-23T08:42:56.585Z,100445.93
2023-02-23T08:45:23.965Z,100450.67
2023-02-23T08:47:51.261Z,100449.65
2023-02-23T08:50:18.536Z,100462.82
2023-02-23T08:52:45.655Z,100461.98
2023-02-23T08:55:16.586Z,100461.56
2023-02-23T08:57:43.817Z,100455.13
2023-02-23T09:00:16.790Z,100454.98
2023-02-23T09:02:45.194Z,100449.89
2023-02-23T09:05:12.340Z,100456.63
2023-02-23T09:07:40.142Z,100458.40
2023-02-23T09:10:08.620Z,100457.76
2023-02-23T09:12:41.536Z,100454.30
2023-02-23T09:15:09.195Z,100462.75
2023-02-23T09:17:36.507Z,100465.09
2023-02-23T09:20:05.109Z,100466.41
2023-02-23T09:22:36.766Z,100475.79
2023-02-23T09:25:05.014Z,100477.08
2023-02-23T09:27:33.078Z,100476.89
2023-02-23T09:30:00.121Z,100471.77
2023-02-23T09:32:27.522Z,100473.39
2023-02-23T09:34:54.601Z,100475.20
2023-02-23T09:37:21.697Z,100479.23
2023-02-23T09:39:49.499Z,100475.91
2023-02-23T09:42:23.803Z,100473.27
2023-02-23T09:45:27.193Z,100467.77
2023-02-23T09:48:12.634Z,100469.67
2023-02-23T09:50:40.614Z,100476.16
2023-02-23T09:53:12.888Z,100471.88
2023-02-23T09:55:41.621Z,100469.62
2023-02-23T09:58:18.394Z,100474.83
2023-02-23T10:00:46.488Z,100471.02
2023-02-23T10:03:33.551Z,100464.14
2023-02-23T10:06:06.679Z,100459.45
2023-02-23T10:08:45.283Z,100464.73
2023-02-23T10:11:21.195Z,100463.79
2023-02-23T10:13:56.353Z,100465.95
2023-02-23T10:16:30.111Z,100467.52
2023-02-23T10:19:34.167Z,100470.14
2023-02-23T10:22:06.546Z,100475.17
2023-02-23T10:24:35.486Z,100477.98
2023-02-23T10:27:16.985Z,100479.23
2023-02-23T10:29:53.074Z,100474.73
2023-02-23T10:32:38.747Z,100473.31
2023-02-23T10:35:13.080Z,100477.11
2023-02-23T10:37:40.390Z,100478.94
2023-02-23T10:40:08.352Z,100483.09
2023-02-23T10:42:35.397Z,100482.22
2023-02-23T10:45:02.403Z,100492.02
2023-02-23T10:47:31.990Z,100491.69
2023-02-23T10:50:02.583Z,100496.91
2023-02-23T10:52:41.320Z,100494.71
2023-02-23T10:57:25.562Z,100488.91
2023-02-23T11:00:00.171Z,100481.67
2023-02-23T11:02:27.771Z,100483.30
2023-02-23T11:04:57.514Z,100485.50
2023-02-23T11:07:29.563Z,100492.91
2023-02-23T11:10:01.290Z,100492.33
2023-02-23T11:12:38.371Z,100486.88
2023-02-23T11:15:49.453Z,100488.09
2023-02-23T11:18:22.903Z,100490.91
2023-02-23T11:20:50.227Z,100499.14
2023-02-23T11:23:32.194Z,100491.39
2023-02-23T11:26:01.409Z,100494.38
2023-02-23T11:28:33.578Z,100492.42
2023-02-23T11:31:04.730Z,100488.77
2023-02-23T11:33:36.247Z,100481.61
2023-02-23T11:36:27.022Z,100490.18
2023-02-23T11:39:03.963Z,100490.87
2023-02-23T11:41:35.617Z,100491.77
2023-02-23T11:44:06.181Z,100493.64
2023-02-23T11:46:36.830Z,100498.48
2023-02-23T11:49:08.811Z,100500.36
2023-02-23T11:51:37.717Z,100494.05
2023-02-23T11:54:05.704Z,100499.48
2023-02-23T11:56:33.835Z,100496.40
2023-02-23T23:14:20.468Z,100606.77
2023-02-23T23:16:48.650Z,100610.05
2023-02-23T23:19:18.205Z,100609.48
2023-02-23T23:21:46.178Z,100608.31
2023-02-23T23:24:16.092Z,100605.80
2023-02-23T23:26:44.533Z,100607.54
2023-02-23T23:29:13.588Z,100604.16
2023-02-23T23:31:45.386Z,100601.33
2023-02-23T23:34:13.064Z,100601.62
2023-02-23T23:36:49.441Z,100591.30
2023-02-23T23:39:17.493Z,100593.77
2023-02-23T23:41:48.180Z,100591.44
2023-02-23T23:44:17.197Z,100588.14
2023-02-23T23:46:45.320Z,100589.08
2023-02-23T23:49:18.367Z,100583.65
2023-02-23T23:51:51.136Z,100580.85
2023-02-23T23:54:20.315Z,100576.40
2023-02-23T23:56:47.681Z,100577.27
2023-02-23T23:59:16.937Z,100572.09
